Fall River, Massachusetts
Current Conditions -  °F | °C
As of 2:53 PM on Monday 24 Nov 2014 (Local Time) from KEWB Reporting Station
Haze Haze  
Wind Chill: 64°   Ceiling: 700
Heat Index: 64°   Visibility: 6mi
Dew Point: 62°   Wind: 25mph
Humidity: 93%   Direction: 200°SSW
Pressure: 29.66"   Gusts: 33mph
Location:  41.7°N, 71.14°W
Report Text: KEWB 241953Z 20022G29KT 6SM BR OVC007 18/17 A2966 RMK AO2 PK WND 20032/1941 RAE36 CIG 005V010 SLP042 P0000 T01780167
Loading
Personal Weather Stations






























Interactive Weather Map New forecast layout! Learn more

10-Day Weather Forecast

Advertisements
Track Severe Weather on mobile